createdAt,value
2022-11-13T00:02:53.447Z,79.22
2022-11-13T00:08:14.219Z,79.70
2022-11-13T00:13:35.320Z,79.74
2022-11-13T00:18:56.057Z,79.56
2022-11-13T00:24:16.569Z,79.64
2022-11-13T00:29:36.677Z,79.62
2022-11-13T00:34:57.453Z,79.63
2022-11-13T00:40:18.258Z,79.38
2022-11-13T00:45:38.662Z,79.32
2022-11-13T00:50:59.301Z,79.64
2022-11-13T00:56:19.956Z,79.55
2022-11-13T01:01:40.497Z,79.42
2022-11-13T01:07:01.259Z,79.08
2022-11-13T01:12:22.041Z,79.40
2022-11-13T01:17:42.835Z,79.42
2022-11-13T01:23:03.800Z,79.45
2022-11-13T01:28:24.240Z,79.52
2022-11-13T01:33:46.104Z,79.69
2022-11-13T01:39:06.496Z,79.82
2022-11-13T01:44:52.662Z,80.23
2022-11-13T01:50:15.157Z,79.88
2022-11-13T01:55:35.523Z,80.03
2022-11-13T02:05:15.910Z,79.99
2022-11-13T02:10:36.279Z,79.96
2022-11-13T02:15:57.620Z,79.67
2022-11-13T02:21:26.815Z,79.75
2022-11-13T02:26:49.775Z,80.03
2022-11-13T02:32:10.202Z,79.93
2022-11-13T02:37:30.437Z,80.05
2022-11-13T02:42:50.993Z,80.27
2022-11-13T02:48:11.311Z,80.43
2022-11-13T02:53:31.941Z,80.42
2022-11-13T02:58:52.516Z,80.41
2022-11-13T03:04:21.347Z,80.27
2022-11-13T03:09:42.190Z,80.39
2022-11-13T03:15:04.056Z,80.46
2022-11-13T03:20:26.374Z,80.33
2022-11-13T03:25:47.190Z,79.91
2022-11-13T03:31:07.606Z,79.99
2022-11-13T03:36:27.874Z,79.51
2022-11-13T03:41:48.749Z,79.25
2022-11-13T03:47:08.947Z,78.50
2022-11-13T03:52:29.499Z,77.50
2022-11-13T03:57:50.066Z,77.08
2022-11-13T04:03:25.566Z,76.65
2022-11-13T04:08:38.168Z,76.74
2022-11-13T04:13:58.534Z,76.54
2022-11-13T04:19:23.285Z,75.63
2022-11-13T04:24:43.356Z,75.64
2022-11-13T04:30:05.336Z,75.45
2022-11-13T04:35:37.535Z,74.85
2022-11-13T04:41:23.918Z,75.19
2022-11-13T04:46:44.359Z,74.54
2022-11-13T04:52:04.910Z,74.69
2022-11-13T04:57:25.429Z,74.43
2022-11-13T05:02:45.589Z,74.47
2022-11-13T05:08:05.959Z,74.66
2022-11-13T05:13:26.585Z,74.61
2022-11-13T05:18:51.058Z,74.51
2022-11-13T05:24:12.075Z,74.23
2022-11-13T05:29:32.486Z,74.65
2022-11-13T06:05:56.449Z,73.92
2022-11-13T06:11:21.402Z,73.35
2022-11-13T06:16:42.089Z,73.58
2022-11-13T06:22:02.911Z,73.39
2022-11-13T06:27:27.797Z,73.25
2022-11-13T06:32:54.776Z,73.12
2022-11-13T06:38:15.220Z,72.91
2022-11-13T06:43:35.791Z,72.68
2022-11-13T06:48:56.473Z,72.47
2022-11-13T06:54:20.316Z,72.46
2022-11-13T06:59:41.128Z,72.23
2022-11-13T07:05:01.619Z,72.46
2022-11-13T07:10:22.187Z,72.16
2022-11-13T07:15:43.143Z,71.90
2022-11-13T07:21:06.674Z,71.69
2022-11-13T07:26:30.624Z,71.46
2022-11-13T07:31:50.903Z,70.98
2022-11-13T07:37:11.662Z,70.70
2022-11-13T07:42:32.131Z,70.67
2022-11-13T07:47:52.694Z,61.60
2022-11-13T07:53:13.578Z,54.47
2022-11-13T07:58:33.887Z,50.82
2022-11-13T08:03:54.678Z,49.36
2022-11-13T08:09:15.580Z,48.42
2022-11-13T08:14:36.260Z,48.72
2022-11-13T08:20:07.726Z,48.55
2022-11-13T08:25:30.695Z,49.42
2022-11-13T08:30:51.180Z,49.39
2022-11-13T08:36:11.908Z,49.79
2022-11-13T08:41:32.173Z,50.11
2022-11-13T08:46:55.918Z,49.90
2022-11-13T08:52:17.498Z,51.00
2022-11-13T08:57:40.842Z,50.51
2022-11-13T09:03:05.090Z,50.97
2022-11-13T09:08:25.973Z,50.72
2022-11-13T09:13:50.802Z,50.88
2022-11-13T09:19:14.369Z,50.97
2022-11-13T09:24:35.131Z,50.40
2022-11-13T09:29:55.907Z,50.22
2022-11-13T09:35:16.456Z,50.09
2022-11-13T09:40:49.361Z,48.56
2022-11-13T09:46:21.873Z,48.55
2022-11-13T09:51:51.707Z,48.41
2022-11-13T09:57:44.638Z,48.63
2022-11-13T10:03:59.192Z,48.52
2022-11-13T10:10:04.700Z,48.45
2022-11-13T10:15:26.884Z,50.52
2022-11-13T10:20:55.865Z,51.14
2022-11-13T10:26:22.573Z,50.83
2022-11-13T10:31:49.576Z,50.67
2022-11-13T10:37:37.006Z,49.88
2022-11-13T10:43:17.052Z,50.67
2022-11-13T10:48:37.469Z,51.96
2022-11-13T10:53:59.209Z,51.99
2022-11-13T10:59:20.717Z,52.25
2022-11-13T11:04:41.123Z,52.48
2022-11-13T11:10:02.195Z,52.95
2022-11-13T11:15:57.400Z,52.40
2022-11-13T11:21:33.425Z,52.99
2022-11-13T11:27:11.142Z,53.07
2022-11-13T11:32:39.019Z,53.58
2022-11-13T11:38:25.776Z,53.10
2022-11-13T11:43:54.545Z,53.40
2022-11-13T11:49:15.503Z,54.10
2022-11-13T11:54:46.499Z,53.38
2022-11-13T12:00:19.485Z,53.10
2022-11-13T12:06:04.857Z,54.01
2022-11-13T12:11:30.664Z,54.31
2022-11-13T12:17:00.095Z,55.50
2022-11-13T12:22:28.181Z,56.43
2022-11-13T12:28:15.351Z,56.37
2022-11-13T12:34:01.102Z,56.50
2022-11-13T12:39:43.855Z,56.69
2022-11-13T12:45:17.636Z,57.61
2022-11-13T12:50:37.973Z,57.90
2022-11-13T12:56:01.767Z,57.83
2022-11-13T13:01:24.160Z,57.35
2022-11-13T13:06:59.108Z,57.69
2022-11-13T13:12:37.990Z,58.15
2022-11-13T13:18:08.874Z,58.66
2022-11-13T13:23:37.653Z,59.17
2022-11-13T13:29:24.108Z,60.23
2022-11-13T13:35:33.103Z,60.25
2022-11-13T13:41:36.166Z,61.79
2022-11-13T13:46:58.081Z,61.64
2022-11-13T13:52:26.544Z,62.03
2022-11-13T13:57:47.985Z,62.13
2022-11-13T14:03:23.238Z,62.72
2022-11-13T14:08:48.428Z,62.24
2022-11-13T14:14:23.754Z,63.06
2022-11-13T14:19:52.808Z,63.66
2022-11-13T14:25:22.366Z,63.73
2022-11-13T14:30:43.871Z,64.04
2022-11-13T14:36:05.680Z,64.42
2022-11-13T14:41:35.437Z,65.64
2022-11-13T14:47:01.344Z,66.61
2022-11-13T14:52:25.001Z,66.78
2022-11-13T14:57:51.493Z,68.39
2022-11-13T15:03:12.041Z,67.97
2022-11-13T15:08:35.655Z,68.59
2022-11-13T15:13:58.878Z,68.95
2022-11-13T15:19:35.039Z,71.05
2022-11-13T15:24:55.781Z,70.18
2022-11-13T15:30:16.952Z,70.37
2022-11-13T15:35:37.646Z,71.35
2022-11-13T15:40:58.066Z,71.53
2022-11-13T15:46:27.949Z,72.00
2022-11-13T15:51:48.704Z,72.35
2022-11-13T15:57:21.944Z,73.39
2022-11-13T16:02:42.848Z,72.70
2022-11-13T16:08:13.671Z,73.52
2022-11-13T16:13:34.513Z,73.18
2022-11-13T16:19:00.045Z,73.23
2022-11-13T16:24:24.182Z,73.58
2022-11-13T16:29:47.912Z,73.79
2022-11-13T16:35:15.964Z,74.49
2022-11-13T16:40:36.970Z,74.05
2022-11-13T16:46:00.441Z,74.63
2022-11-13T16:51:21.362Z,74.42
2022-11-13T16:56:42.142Z,74.39
2022-11-13T17:02:02.789Z,74.68
2022-11-13T17:07:23.680Z,74.72
2022-11-13T17:12:44.147Z,74.96
2022-11-13T17:18:05.355Z,74.85
2022-11-13T17:23:26.368Z,75.05
2022-11-13T17:28:47.038Z,75.12
2022-11-13T17:34:07.417Z,74.93
2022-11-13T17:39:37.053Z,75.83
2022-11-13T17:45:00.153Z,77.01
2022-11-13T17:50:20.610Z,77.32
2022-11-13T17:55:41.854Z,77.89
2022-11-13T18:01:08.211Z,77.81
2022-11-13T18:06:29.071Z,77.11
2022-11-13T18:11:50.658Z,76.99
2022-11-13T18:17:11.086Z,76.90
2022-11-13T18:22:31.861Z,76.57
2022-11-13T18:27:52.393Z,76.70
2022-11-13T18:33:13.125Z,76.39
2022-11-13T18:38:33.628Z,76.25
2022-11-13T18:43:55.226Z,75.85
2022-11-13T18:49:16.371Z,75.86
2022-11-13T18:54:38.340Z,75.51
2022-11-13T18:59:58.915Z,75.29
2022-11-13T19:05:19.513Z,75.23
2022-11-13T19:10:40.796Z,75.42
2022-11-13T19:16:29.856Z,75.70
2022-11-13T19:21:53.676Z,75.35
2022-11-13T19:27:13.837Z,75.50
2022-11-13T19:32:34.954Z,75.41
2022-11-13T19:37:57.765Z,75.36
2022-11-13T19:43:18.339Z,75.18
2022-11-13T19:48:46.951Z,75.08
2022-11-13T19:54:08.104Z,75.22
2022-11-13T19:59:29.069Z,75.29
2022-11-13T20:04:49.825Z,75.19
2022-11-13T20:10:10.333Z,75.32
2022-11-13T20:15:35.776Z,75.11
2022-11-13T20:20:56.828Z,75.53
2022-11-13T20:26:20.340Z,75.29
2022-11-13T20:31:41.903Z,75.29
2022-11-13T20:37:02.371Z,75.36
2022-11-13T20:42:24.275Z,75.50
2022-11-13T20:47:44.952Z,75.29
2022-11-13T20:53:06.220Z,75.53
2022-11-13T20:58:27.302Z,75.49
2022-11-13T21:03:48.743Z,76.54
2022-11-13T21:09:10.016Z,75.64
2022-11-13T21:14:30.672Z,75.78
2022-11-13T21:19:55.041Z,75.92
2022-11-13T21:25:19.758Z,76.06
2022-11-13T21:30:40.208Z,76.15
2022-11-13T21:36:12.813Z,76.50
2022-11-13T21:41:33.782Z,76.39
2022-11-13T21:46:54.576Z,76.46
2022-11-13T21:52:15.265Z,76.63
2022-11-13T21:57:35.914Z,76.96
2022-11-13T22:02:56.743Z,77.15
2022-11-13T22:08:20.701Z,77.36
2022-11-13T22:13:41.161Z,77.23
2022-11-13T22:19:04.428Z,77.50
2022-11-13T22:24:25.201Z,77.83
2022-11-13T22:29:46.037Z,77.74
2022-11-13T22:35:07.454Z,77.79
2022-11-13T22:40:27.979Z,77.87
2022-11-13T22:45:50.469Z,77.78
2022-11-13T22:51:17.623Z,78.06
2022-11-13T22:56:44.418Z,78.40
2022-11-13T23:02:05.396Z,78.24
2022-11-13T23:07:25.712Z,78.21
2022-11-13T23:12:46.276Z,78.58
2022-11-13T23:18:16.170Z,78.83
2022-11-13T23:23:37.255Z,78.33
2022-11-13T23:28:58.128Z,78.60
2022-11-13T23:34:38.406Z,78.47
2022-11-13T23:40:01.426Z,78.47
2022-11-13T23:45:22.247Z,78.27
2022-11-13T23:50:43.245Z,78.32
2022-11-13T23:56:04.085Z,78.39
